createdAt,value
2018-12-21T00:00:59.071Z,188.52
2018-12-21T00:03:26.512Z,246.53
2018-12-21T00:05:53.845Z,211.17
2018-12-21T00:08:21.219Z,344.03
2018-12-21T00:10:48.558Z,273.50
2018-12-21T00:13:15.911Z,212.50
2018-12-21T00:15:43.298Z,301.63
2018-12-21T00:18:10.643Z,262.43
2018-12-21T00:20:37.968Z,194.07
2018-12-21T00:23:05.333Z,217.50
2018-12-21T00:25:32.670Z,207.07
2018-12-21T00:28:00.410Z,279.25
2018-12-21T00:30:27.108Z,203.43
2018-12-21T00:32:59.811Z,220.02
2018-12-21T00:35:32.704Z,186.07
2018-12-21T00:38:05.724Z,216.68
2018-12-21T00:40:38.835Z,252.50
2018-12-21T00:43:11.626Z,355.32
2018-12-21T00:45:43.553Z,195.00
2018-12-21T00:48:10.933Z,238.03
2018-12-21T00:50:38.328Z,351.65
2018-12-21T00:53:05.723Z,281.32
2018-12-21T00:55:33.121Z,307.00
2018-12-21T00:58:00.458Z,226.23
2018-12-21T01:00:27.835Z,231.20
2018-12-21T01:02:55.267Z,199.72
2018-12-21T01:05:22.968Z,294.35
2018-12-21T01:07:50.546Z,204.13
2018-12-21T01:10:18.080Z,184.60
2018-12-21T01:12:45.521Z,234.85
2018-12-21T01:15:13.090Z,248.07
2018-12-21T01:17:40.560Z,197.78
2018-12-21T01:20:08.510Z,210.40
2018-12-21T01:22:35.922Z,220.35
2018-12-21T01:25:03.469Z,194.95
2018-12-21T01:27:30.904Z,225.40
2018-12-21T01:29:58.674Z,182.78
2018-12-21T01:32:26.066Z,187.50
2018-12-21T01:34:53.450Z,224.80
2018-12-21T01:37:20.908Z,197.93
2018-12-21T01:39:48.259Z,182.60
2018-12-21T01:42:15.779Z,215.82
2018-12-21T01:44:43.212Z,181.22
2018-12-21T01:47:10.533Z,136.43
2018-12-21T01:49:37.915Z,265.80
2018-12-21T01:52:05.346Z,196.25
2018-12-21T01:54:32.646Z,154.47
2018-12-21T01:58:24.274Z,197.55
2018-12-21T02:00:51.662Z,164.32
2018-12-21T02:03:19.126Z,150.70
2018-12-21T02:05:46.530Z,326.95
2018-12-21T02:08:13.966Z,278.80
2018-12-21T02:10:41.316Z,201.88
2018-12-21T02:13:08.715Z,195.10
2018-12-21T02:15:36.060Z,147.80
2018-12-21T02:18:03.485Z,168.45
2018-12-21T02:20:31.127Z,183.60
2018-12-21T02:22:58.531Z,236.07
2018-12-21T02:25:26.071Z,218.15
2018-12-21T02:27:53.700Z,118.95
2018-12-21T02:30:21.151Z,131.78
2018-12-21T02:32:48.605Z,145.40
2018-12-21T02:35:15.932Z,132.75
2018-12-21T02:37:43.383Z,132.32
2018-12-21T02:40:10.960Z,178.82
2018-12-21T02:42:38.307Z,131.70
2018-12-21T02:45:07.454Z,134.78
2018-12-21T02:47:34.921Z,185.20
2018-12-21T02:50:02.294Z,179.90
2018-12-21T02:52:29.720Z,200.38
2018-12-21T02:54:57.060Z,148.35
2018-12-21T02:57:24.449Z,138.43
2018-12-21T02:59:51.967Z,145.50
2018-12-21T03:02:19.416Z,129.78
2018-12-21T03:04:46.763Z,117.03
2018-12-21T03:07:14.131Z,110.83
2018-12-21T03:09:41.458Z,125.35
2018-12-21T03:12:09.199Z,124.87
2018-12-21T03:14:36.521Z,153.07
2018-12-21T03:17:04.055Z,127.12
2018-12-21T03:19:31.466Z,131.80
2018-12-21T03:21:58.896Z,124.07
2018-12-21T03:24:26.302Z,119.28
2018-12-21T03:26:53.822Z,113.25
2018-12-21T03:29:21.301Z,123.85
2018-12-21T03:31:48.731Z,119.55
2018-12-21T03:34:16.075Z,119.10
2018-12-21T03:36:43.487Z,123.75
2018-12-21T03:39:10.897Z,117.82
2018-12-21T03:41:38.319Z,129.90
2018-12-21T03:44:05.667Z,130.63
2018-12-21T03:46:34.151Z,149.35
2018-12-21T03:49:01.491Z,140.30
2018-12-21T03:51:28.885Z,136.20
2018-12-21T03:53:56.251Z,135.75
2018-12-21T03:56:23.734Z,131.52
2018-12-21T03:58:51.056Z,136.55
2018-12-21T04:01:18.477Z,136.18
2018-12-21T04:03:45.807Z,125.90
2018-12-21T04:06:13.255Z,128.87
2018-12-21T04:08:40.729Z,136.75
2018-12-21T04:11:08.433Z,128.45
2018-12-21T04:13:35.856Z,139.68
2018-12-21T04:16:03.252Z,140.47
2018-12-21T04:18:30.592Z,157.97
2018-12-21T04:20:58.008Z,148.70
2018-12-21T04:23:25.376Z,168.57
2018-12-21T04:25:52.815Z,122.42
2018-12-21T04:28:20.206Z,117.30
2018-12-21T04:30:47.671Z,131.22
2018-12-21T04:33:15.110Z,134.22
2018-12-21T04:35:42.463Z,128.07
2018-12-21T04:38:09.990Z,185.78
2018-12-21T04:40:37.475Z,130.22
2018-12-21T04:43:04.798Z,144.50
2018-12-21T04:45:32.232Z,132.85
2018-12-21T04:48:00.613Z,127.15
2018-12-21T04:50:28.046Z,129.70
2018-12-21T04:52:55.402Z,138.77
2018-12-21T04:55:22.830Z,128.27
2018-12-21T04:57:50.294Z,144.35
2018-12-21T05:00:17.674Z,141.92
2018-12-21T05:02:46.121Z,128.78
2018-12-21T05:05:13.548Z,116.40
2018-12-21T05:07:40.996Z,117.93
2018-12-21T05:10:08.673Z,121.90
2018-12-21T05:12:36.116Z,122.60
2018-12-21T05:15:03.723Z,118.28
2018-12-21T05:17:31.060Z,128.68
2018-12-21T05:19:58.499Z,134.47
2018-12-21T05:22:25.852Z,146.77
2018-12-21T05:24:53.228Z,128.12
2018-12-21T05:27:20.611Z,119.25
2018-12-21T05:29:48.024Z,119.85
2018-12-21T05:32:15.398Z,123.10
2018-12-21T05:34:42.835Z,121.28
2018-12-21T05:37:10.179Z,135.35
2018-12-21T05:39:37.603Z,117.47
2018-12-21T05:42:04.990Z,133.90
2018-12-21T05:44:32.415Z,146.47
2018-12-21T05:47:00.802Z,128.47
2018-12-21T05:49:28.257Z,122.25
2018-12-21T05:51:55.596Z,135.12
2018-12-21T05:54:22.953Z,148.17
2018-12-21T05:56:50.371Z,123.07
2018-12-21T05:59:17.795Z,135.32
2018-12-21T06:01:45.147Z,122.47
2018-12-21T06:04:12.579Z,139.20
2018-12-21T06:06:39.924Z,122.10
2018-12-21T06:09:08.099Z,129.00
2018-12-21T06:11:35.457Z,134.50
2018-12-21T06:14:02.886Z,122.98
2018-12-21T06:16:30.241Z,122.72
2018-12-21T06:18:57.682Z,121.65
2018-12-21T06:21:25.063Z,115.82
2018-12-21T06:23:52.503Z,115.75
2018-12-21T06:26:19.831Z,123.13
2018-12-21T06:28:47.240Z,125.42
2018-12-21T06:31:14.600Z,127.20
2018-12-21T06:33:41.994Z,121.55
2018-12-21T06:36:09.356Z,118.30
2018-12-21T06:38:36.794Z,127.05
2018-12-21T06:41:04.163Z,123.87
2018-12-21T06:43:32.110Z,123.62
2018-12-21T06:45:59.582Z,125.97
2018-12-21T06:48:27.028Z,118.93
2018-12-21T06:50:55.394Z,117.30
2018-12-21T06:53:22.831Z,116.05
2018-12-21T06:55:50.190Z,119.90
2018-12-21T06:58:17.588Z,122.82
2018-12-21T07:00:45.026Z,124.50
2018-12-21T07:03:17.116Z,117.33
2018-12-21T07:05:42.108Z,118.20
2018-12-21T07:08:09.101Z,118.93
2018-12-21T07:10:36.498Z,119.53
2018-12-21T07:13:03.926Z,117.13
2018-12-21T07:15:31.330Z,116.05
2018-12-21T07:17:58.681Z,121.42
2018-12-21T07:20:26.456Z,121.00
2018-12-21T07:22:53.777Z,125.40
2018-12-21T07:25:21.180Z,134.47
2018-12-21T07:27:48.532Z,138.03
2018-12-21T07:30:15.916Z,130.05
2018-12-21T07:32:43.296Z,134.18
2018-12-21T07:35:12.130Z,126.38
2018-12-21T07:37:39.722Z,140.00
2018-12-21T07:40:07.730Z,122.53
2018-12-21T07:42:35.137Z,119.47
2018-12-21T07:45:02.615Z,122.72
2018-12-21T07:47:32.087Z,118.75
2018-12-21T07:49:59.419Z,127.42
2018-12-21T07:52:26.808Z,123.85
2018-12-21T07:54:54.250Z,122.35
2018-12-21T07:57:21.600Z,116.95
2018-12-21T07:59:49.048Z,122.53
2018-12-21T08:02:16.371Z,120.22
2018-12-21T08:04:43.800Z,125.12
2018-12-21T08:07:11.210Z,118.13
2018-12-21T08:09:38.671Z,119.15
2018-12-21T08:12:05.998Z,123.00
2018-12-21T08:14:33.400Z,124.00
2018-12-21T08:17:00.729Z,117.97
2018-12-21T08:19:28.144Z,124.83
2018-12-21T08:21:55.590Z,118.13
2018-12-21T08:24:23.086Z,110.97
2018-12-21T08:26:51.434Z,119.50
2018-12-21T08:29:18.834Z,117.37
2018-12-21T08:31:46.147Z,115.90
2018-12-21T08:34:13.535Z,120.80
2018-12-21T08:36:40.955Z,119.47
2018-12-21T08:39:08.372Z,114.97
2018-12-21T08:41:35.728Z,119.97
2018-12-21T08:44:03.233Z,120.57
2018-12-21T08:46:30.690Z,117.67
2018-12-21T08:48:58.405Z,119.30
2018-12-21T08:51:25.805Z,117.30
2018-12-21T08:53:53.142Z,117.60
2018-12-21T08:56:20.564Z,116.20
2018-12-21T08:58:47.945Z,124.80
2018-12-21T09:01:15.254Z,117.50
2018-12-21T09:03:42.702Z,125.00
2018-12-21T09:06:18.300Z,117.07
2018-12-21T09:08:39.425Z,126.27
2018-12-21T09:11:06.847Z,133.37
2018-12-21T09:13:34.235Z,124.83
2018-12-21T09:16:01.600Z,128.20
2018-12-21T09:18:29.036Z,119.07
2018-12-21T09:20:56.367Z,131.97
2018-12-21T09:23:23.840Z,133.37
2018-12-21T09:25:51.258Z,152.60
2018-12-21T09:28:18.666Z,136.10
2018-12-21T09:30:46.000Z,125.47
2018-12-21T09:33:13.440Z,134.07
2018-12-21T09:35:40.788Z,126.93
2018-12-21T09:38:08.259Z,124.93
2018-12-21T09:40:35.627Z,129.00
2018-12-21T09:43:03.044Z,128.10
2018-12-21T09:45:30.382Z,125.40
2018-12-21T09:47:57.803Z,122.60
2018-12-21T09:50:25.230Z,123.90
2018-12-21T09:52:52.617Z,128.83
2018-12-21T09:55:20.451Z,139.80
2018-12-21T09:57:47.794Z,135.77
2018-12-21T10:00:16.188Z,122.43
2018-12-21T10:02:43.598Z,122.50
2018-12-21T10:05:14.427Z,127.20
2018-12-21T10:07:41.793Z,125.50
2018-12-21T10:10:09.217Z,121.90
2018-12-21T10:12:36.552Z,126.57
2018-12-21T10:15:04.109Z,132.17
2018-12-21T10:17:31.543Z,137.53
2018-12-21T10:19:58.876Z,126.60
2018-12-21T10:22:26.294Z,123.93
2018-12-21T10:24:54.229Z,125.47
2018-12-21T10:27:21.850Z,128.30
2018-12-21T10:29:49.751Z,118.20
2018-12-21T10:32:17.334Z,122.23
2018-12-21T10:34:44.664Z,119.87
2018-12-21T10:37:12.095Z,118.50
2018-12-21T10:39:39.437Z,124.07
2018-12-21T10:42:06.806Z,131.40
2018-12-21T10:44:34.218Z,127.40
2018-12-21T10:47:02.650Z,128.50
2018-12-21T10:49:32.081Z,145.47
2018-12-21T10:51:59.789Z,141.70
2018-12-21T10:54:27.243Z,128.57
2018-12-21T10:56:54.676Z,135.13
2018-12-21T10:59:22.131Z,127.53
2018-12-21T11:01:49.447Z,127.87
2018-12-21T11:04:17.379Z,127.33
2018-12-21T11:06:44.793Z,127.10
2018-12-21T11:09:12.107Z,126.83
2018-12-21T11:11:39.531Z,138.33
2018-12-21T11:14:06.943Z,131.87
2018-12-21T11:16:34.659Z,128.87
2018-12-21T11:19:02.068Z,132.90
2018-12-21T11:21:29.501Z,135.07
2018-12-21T11:23:57.092Z,129.30
2018-12-21T11:26:24.523Z,128.87
2018-12-21T11:28:53.430Z,135.57
2018-12-21T11:31:20.949Z,129.80
2018-12-21T11:33:48.320Z,132.63
2018-12-21T11:36:16.470Z,127.87
2018-12-21T11:38:43.935Z,129.20
2018-12-21T11:41:11.265Z,131.40
2018-12-21T11:43:38.617Z,126.57
2018-12-21T11:46:05.989Z,133.37
2018-12-21T11:48:33.361Z,139.40
2018-12-21T11:51:02.008Z,133.47
2018-12-21T11:53:31.179Z,121.80
2018-12-21T11:56:00.399Z,130.70
2018-12-21T11:58:29.391Z,135.07
2018-12-21T12:00:58.452Z,133.33
2018-12-21T12:03:27.144Z,134.67
2018-12-21T12:05:55.830Z,132.87
2018-12-21T12:08:24.779Z,133.03
2018-12-21T12:10:53.621Z,128.63
2018-12-21T12:13:22.824Z,160.37
2018-12-21T12:15:51.194Z,168.47
2018-12-21T12:18:20.609Z,184.67
2018-12-21T12:20:50.092Z,159.17
2018-12-21T12:23:18.990Z,141.07
2018-12-21T12:25:48.100Z,149.40
2018-12-21T12:28:17.689Z,132.93
2018-12-21T12:30:46.510Z,125.10
2018-12-21T12:33:14.002Z,123.70
2018-12-21T12:35:41.371Z,127.00
2018-12-21T12:38:08.699Z,133.37
2018-12-21T12:40:36.067Z,128.27
2018-12-21T12:43:03.444Z,123.70
2018-12-21T12:45:30.792Z,130.20
2018-12-21T12:47:58.145Z,129.80
2018-12-21T12:50:25.552Z,138.30
2018-12-21T12:52:52.934Z,139.90
2018-12-21T12:55:20.371Z,131.30
2018-12-21T12:57:47.731Z,125.50
2018-12-21T13:00:15.106Z,125.43
2018-12-21T13:02:42.494Z,139.17
2018-12-21T13:05:09.937Z,126.57
2018-12-21T13:07:37.289Z,128.73
2018-12-21T13:10:05.683Z,128.90
2018-12-21T13:12:33.209Z,129.70
2018-12-21T13:15:01.316Z,129.30
2018-12-21T13:17:31.401Z,134.23
2018-12-21T13:20:01.108Z,317.97
2018-12-21T13:22:33.171Z,141.77
2018-12-21T13:25:11.233Z,237.07
2018-12-21T13:27:35.300Z,193.57
2018-12-21T13:30:03.188Z,137.20
2018-12-21T13:32:30.941Z,146.53
2018-12-21T13:34:58.370Z,138.23
2018-12-21T13:37:25.734Z,134.73
2018-12-21T13:39:53.184Z,136.27
2018-12-21T13:42:20.568Z,164.70
2018-12-21T13:44:48.029Z,121.07
2018-12-21T13:47:15.420Z,123.77
2018-12-21T13:49:42.853Z,127.27
2018-12-21T13:52:10.260Z,130.83
2018-12-21T13:54:37.957Z,138.80
2018-12-21T13:57:05.365Z,130.57
2018-12-21T13:59:32.720Z,123.30
2018-12-21T14:02:00.083Z,126.03
2018-12-21T14:04:27.420Z,125.60
2018-12-21T14:06:54.778Z,126.73
2018-12-21T14:09:22.354Z,117.87
2018-12-21T14:11:49.690Z,120.67
2018-12-21T14:14:17.112Z,120.63
2018-12-21T14:16:44.538Z,122.27
2018-12-21T14:19:11.970Z,128.77
2018-12-21T14:21:39.331Z,140.27
2018-12-21T14:24:06.704Z,133.03
2018-12-21T14:26:34.123Z,137.40
2018-12-21T14:29:01.532Z,132.13
2018-12-21T14:31:28.938Z,128.97
2018-12-21T14:33:56.311Z,131.10
2018-12-21T14:36:23.683Z,143.07
2018-12-21T14:38:51.147Z,141.30
2018-12-21T14:41:18.558Z,131.37
2018-12-21T14:45:10.389Z,157.20
2018-12-21T14:47:37.780Z,135.37
2018-12-21T14:50:05.899Z,136.00
2018-12-21T14:52:33.390Z,138.60
2018-12-21T14:55:00.743Z,132.17
2018-12-21T14:57:28.111Z,138.17
2018-12-21T14:59:55.568Z,131.07
2018-12-21T15:02:22.915Z,132.63
2018-12-21T15:04:50.265Z,126.97
2018-12-21T15:07:17.626Z,126.97
2018-12-21T15:09:44.964Z,141.00
2018-12-21T15:12:12.312Z,135.83
2018-12-21T15:14:39.696Z,130.80
2018-12-21T15:17:07.171Z,128.77
2018-12-21T15:19:34.606Z,125.37
2018-12-21T15:22:01.947Z,129.50
2018-12-21T15:24:29.286Z,132.37
2018-12-21T15:26:56.787Z,125.30
2018-12-21T15:29:24.211Z,131.77
2018-12-21T15:31:51.919Z,138.13
2018-12-21T15:34:19.323Z,131.30
2018-12-21T15:36:46.679Z,130.10
2018-12-21T15:39:14.008Z,146.30
2018-12-21T15:41:41.399Z,142.97
2018-12-21T15:44:08.721Z,144.37
2018-12-21T15:46:36.122Z,137.40
2018-12-21T15:49:03.608Z,134.73
2018-12-21T15:51:31.014Z,138.87
2018-12-21T15:53:58.416Z,116.37
2018-12-21T15:56:25.964Z,111.67
2018-12-21T15:58:53.261Z,113.90
2018-12-21T16:01:20.566Z,122.47
2018-12-21T16:03:48.067Z,114.70
2018-12-21T16:06:15.573Z,118.10
2018-12-21T16:08:43.004Z,112.40
2018-12-21T16:11:10.600Z,129.27
2018-12-21T16:13:37.934Z,112.63
2018-12-21T16:16:05.548Z,126.73
2018-12-21T16:18:32.958Z,129.80
2018-12-21T16:21:00.306Z,125.77
2018-12-21T16:23:27.953Z,121.23
2018-12-21T16:26:03.299Z,120.47
2018-12-21T16:28:25.231Z,117.33
2018-12-21T16:30:52.587Z,123.47
2018-12-21T16:33:20.125Z,118.33
2018-12-21T16:35:47.492Z,126.13
2018-12-21T16:38:16.071Z,122.90
2018-12-21T16:40:43.635Z,118.03
2018-12-21T16:43:11.027Z,119.30
2018-12-21T16:45:38.483Z,116.80
2018-12-21T16:48:05.812Z,118.83
2018-12-21T16:50:34.202Z,118.60
2018-12-21T16:54:26.104Z,111.17
2018-12-21T16:56:53.490Z,114.57
2018-12-21T16:59:20.807Z,118.07
2018-12-21T17:01:48.214Z,117.10
2018-12-21T17:04:15.558Z,119.67
2018-12-21T17:06:42.915Z,114.93
2018-12-21T17:09:10.268Z,104.60
2018-12-21T17:11:37.685Z,111.40
2018-12-21T17:14:05.089Z,107.00
2018-12-21T17:16:32.433Z,107.37
2018-12-21T17:19:01.773Z,102.37
2018-12-21T17:21:29.174Z,105.77
2018-12-21T17:23:56.522Z,104.30
2018-12-21T17:26:23.894Z,102.97
2018-12-21T17:28:51.358Z,105.73
2018-12-21T17:31:18.702Z,113.70
2018-12-21T17:33:46.050Z,114.37
2018-12-21T17:36:13.421Z,108.70
2018-12-21T17:38:40.783Z,118.03
2018-12-21T17:41:08.132Z,117.27
2018-12-21T17:43:35.506Z,107.17
2018-12-21T17:46:03.210Z,109.27
2018-12-21T17:48:30.724Z,105.07
2018-12-21T17:50:58.155Z,103.77
2018-12-21T17:53:25.492Z,100.97
2018-12-21T17:55:52.842Z,105.07
2018-12-21T17:58:20.228Z,100.77
2018-12-21T18:00:47.586Z,104.40
2018-12-21T18:03:19.845Z,115.77
2018-12-21T18:05:47.219Z,112.93
2018-12-21T18:08:14.623Z,113.30
2018-12-21T18:10:42.125Z,104.87
2018-12-21T18:13:09.750Z,108.07
2018-12-21T18:15:37.126Z,104.20
2018-12-21T18:18:04.469Z,99.70
2018-12-21T18:20:31.847Z,100.50
2018-12-21T18:22:59.899Z,106.10
2018-12-21T18:25:28.150Z,109.83
2018-12-21T18:27:57.119Z,110.50
2018-12-21T18:30:27.894Z,101.90
2018-12-21T18:32:55.308Z,110.60
2018-12-21T18:35:22.891Z,100.00
2018-12-21T18:37:57.480Z,94.37
2018-12-21T18:40:25.061Z,99.73
2018-12-21T18:42:52.462Z,97.50
2018-12-21T18:45:19.822Z,95.00
2018-12-21T18:47:47.199Z,98.60
2018-12-21T18:50:14.519Z,96.53
2018-12-21T18:52:41.886Z,100.87
2018-12-21T18:55:10.362Z,103.17
2018-12-21T18:57:37.750Z,113.37
2018-12-21T19:00:06.212Z,105.97
2018-12-21T19:02:33.555Z,109.10
2018-12-21T19:05:00.903Z,113.97
2018-12-21T19:07:28.270Z,106.90
2018-12-21T19:09:55.971Z,113.63
2018-12-21T19:12:23.372Z,107.87
2018-12-21T19:14:50.815Z,106.23
2018-12-21T19:17:18.187Z,112.90
2018-12-21T19:19:45.545Z,104.63
2018-12-21T19:22:12.911Z,100.10
2018-12-21T19:24:40.274Z,109.57
2018-12-21T19:27:07.616Z,111.13
2018-12-21T19:29:34.968Z,110.10
2018-12-21T19:32:02.338Z,117.30
2018-12-21T19:34:29.788Z,121.93
2018-12-21T19:36:57.163Z,106.47
2018-12-21T19:39:24.614Z,108.77
2018-12-21T19:41:52.070Z,100.97
2018-12-21T19:44:20.160Z,99.67
2018-12-21T19:46:47.574Z,99.77
2018-12-21T19:49:15.548Z,100.33
2018-12-21T19:51:42.911Z,98.73
2018-12-21T19:54:11.897Z,97.77
2018-12-21T19:56:46.128Z,110.67
2018-12-21T19:59:13.582Z,109.77
2018-12-21T20:01:41.051Z,105.97
2018-12-21T20:04:08.479Z,106.40
2018-12-21T20:06:35.862Z,100.50
2018-12-21T20:09:04.906Z,102.43
2018-12-21T20:11:32.323Z,106.97
2018-12-21T20:13:59.754Z,97.43
2018-12-21T20:16:27.118Z,96.27
2018-12-21T20:18:54.561Z,97.07
2018-12-21T20:21:21.914Z,103.17
2018-12-21T20:23:49.262Z,97.77
2018-12-21T20:26:16.738Z,109.50
2018-12-21T20:28:44.135Z,111.97
2018-12-21T20:31:11.522Z,115.97
2018-12-21T20:33:38.895Z,139.37
2018-12-21T20:36:06.292Z,129.27
2018-12-21T20:38:33.719Z,116.50
2018-12-21T20:41:02.687Z,104.10
2018-12-21T20:43:30.078Z,92.70
2018-12-21T20:45:57.500Z,97.07
2018-12-21T20:48:24.984Z,103.10
2018-12-21T20:50:52.455Z,104.97
2018-12-21T20:53:19.910Z,103.17
2018-12-21T20:55:47.735Z,112.00
2018-12-21T20:58:22.071Z,167.47
2018-12-21T21:00:49.374Z,96.97
2018-12-21T21:03:16.780Z,94.47
2018-12-21T21:05:45.165Z,95.70
2018-12-21T21:08:12.520Z,91.27
2018-12-21T21:10:39.896Z,101.93
2018-12-21T21:13:07.321Z,110.77
2018-12-21T21:15:34.678Z,101.17
2018-12-21T21:18:02.091Z,102.03
2018-12-21T21:20:29.571Z,107.90
2018-12-21T21:22:56.986Z,99.50
2018-12-21T21:25:24.483Z,101.27
2018-12-21T21:27:51.839Z,99.97
2018-12-21T21:30:19.504Z,107.30
2018-12-21T21:32:46.869Z,101.17
2018-12-21T21:35:14.243Z,99.07
2018-12-21T21:37:41.721Z,99.87
2018-12-21T21:40:11.082Z,104.27
2018-12-21T21:42:38.484Z,98.20
2018-12-21T21:45:06.217Z,102.20
2018-12-21T21:47:33.551Z,102.50
2018-12-21T21:50:00.921Z,94.97
2018-12-21T21:52:28.278Z,101.37
2018-12-21T21:54:55.606Z,101.90
2018-12-21T21:57:23.899Z,101.73
2018-12-21T21:59:51.250Z,103.27
2018-12-21T22:02:18.971Z,103.40
2018-12-21T22:04:46.351Z,113.30
2018-12-21T22:07:13.710Z,101.80
2018-12-21T22:09:41.079Z,107.60
2018-12-21T22:12:08.461Z,115.20
2018-12-21T22:14:35.930Z,111.23
2018-12-21T22:17:03.363Z,101.83
2018-12-21T22:19:30.694Z,99.70
2018-12-21T22:21:58.070Z,103.27
2018-12-21T22:24:25.411Z,100.77
2018-12-21T22:26:52.774Z,98.37
2018-12-21T22:29:20.135Z,101.43
2018-12-21T22:31:47.487Z,94.83
2018-12-21T22:34:14.857Z,103.13
2018-12-21T22:36:42.278Z,97.37
2018-12-21T22:39:09.638Z,99.43
2018-12-21T22:41:37.006Z,105.10
2018-12-21T22:44:04.367Z,98.90
2018-12-21T22:46:31.715Z,96.87
2018-12-21T22:48:59.065Z,99.50
2018-12-21T22:51:26.526Z,97.00
2018-12-21T22:53:53.860Z,95.60
2018-12-21T22:56:21.215Z,96.93
2018-12-21T22:58:48.568Z,94.67
2018-12-21T23:01:15.999Z,97.80
2018-12-21T23:03:43.392Z,104.70
2018-12-21T23:06:10.778Z,96.57
2018-12-21T23:08:38.199Z,91.23
2018-12-21T23:11:05.570Z,92.43
2018-12-21T23:13:32.977Z,91.03
2018-12-21T23:16:00.296Z,89.50
2018-12-21T23:18:27.622Z,89.07
2018-12-21T23:20:54.995Z,91.40
2018-12-21T23:24:46.665Z,85.30
2018-12-21T23:27:14.059Z,85.90
2018-12-21T23:29:41.495Z,82.63
2018-12-21T23:32:08.871Z,81.97
2018-12-21T23:34:36.278Z,86.60
2018-12-21T23:37:03.613Z,81.77
2018-12-21T23:39:31.241Z,91.77
2018-12-21T23:41:58.704Z,91.20
2018-12-21T23:44:26.586Z,84.37
2018-12-21T23:46:53.919Z,86.50
2018-12-21T23:49:21.294Z,77.57
2018-12-21T23:51:48.618Z,79.77
2018-12-21T23:54:16.000Z,88.30
2018-12-21T23:56:43.557Z,83.33
2018-12-21T23:59:10.897Z,81.40
